createdAt,value
2023-05-12T00:00:38.636Z,10.68
2023-05-12T00:03:24.474Z,10.97
2023-05-12T00:06:09.988Z,9.83
2023-05-12T00:08:55.585Z,9.78
2023-05-12T00:11:41.378Z,9.70
2023-05-12T00:14:26.814Z,10.56
2023-05-12T00:17:13.889Z,9.52
2023-05-12T00:19:59.383Z,9.83
2023-05-12T00:22:44.880Z,10.83
2023-05-12T00:25:30.264Z,10.78
2023-05-12T00:28:15.643Z,9.43
2023-05-12T00:31:02.914Z,10.27
2023-05-12T00:33:49.583Z,10.71
2023-05-12T00:36:35.156Z,10.61
2023-05-12T00:39:21.314Z,9.36
2023-05-12T00:42:07.385Z,9.26
2023-05-12T00:44:52.656Z,10.58
2023-05-12T00:47:38.645Z,9.27
2023-05-12T00:50:25.202Z,10.46
2023-05-12T00:53:12.314Z,10.22
2023-05-12T00:55:58.246Z,10.46
2023-05-12T00:58:46.735Z,10.40
2023-05-12T01:01:34.559Z,10.08
2023-05-12T01:04:19.971Z,10.07
2023-05-12T01:07:21.374Z,8.94
2023-05-12T01:10:18.763Z,10.10
2023-05-12T01:13:04.926Z,9.74
2023-05-12T01:15:54.516Z,9.92
2023-05-12T01:18:42.042Z,8.04
2023-05-12T01:21:27.778Z,8.37
2023-05-12T01:24:18.670Z,8.26
2023-05-12T01:27:05.410Z,9.43
2023-05-12T01:29:51.830Z,9.46
2023-05-12T01:32:39.569Z,8.11
2023-05-12T01:35:25.581Z,7.97
2023-05-12T01:38:19.001Z,9.35
2023-05-12T01:41:04.830Z,7.96
2023-05-12T01:43:50.227Z,8.02
2023-05-12T01:46:36.611Z,9.22
2023-05-12T01:49:23.119Z,9.16
2023-05-12T01:52:08.645Z,7.85
2023-05-12T01:54:54.154Z,7.92
2023-05-12T01:57:41.092Z,8.92
2023-05-12T02:00:27.376Z,7.77
2023-05-12T02:03:15.509Z,8.78
2023-05-12T02:06:01.617Z,7.37
2023-05-12T02:08:47.024Z,8.66
2023-05-12T02:11:32.458Z,7.34
2023-05-12T02:14:17.913Z,8.43
2023-05-12T02:17:04.687Z,8.35
2023-05-12T02:19:51.506Z,8.20
2023-05-12T02:22:37.206Z,8.24
2023-05-12T02:25:22.597Z,8.17
2023-05-12T02:28:10.985Z,8.40
2023-05-12T02:30:58.001Z,7.87
2023-05-12T02:33:43.667Z,7.23
2023-05-12T02:36:29.152Z,8.47
2023-05-12T02:39:14.471Z,8.28
2023-05-12T02:41:59.792Z,7.26
2023-05-12T02:44:45.800Z,7.24
2023-05-12T02:47:33.095Z,8.46
2023-05-12T02:50:19.207Z,8.38
2023-05-12T02:53:04.795Z,8.40
2023-05-12T02:55:50.745Z,6.98
2023-05-12T02:58:36.477Z,8.31
2023-05-12T03:01:21.972Z,7.35
2023-05-12T03:04:07.304Z,8.37
2023-05-12T03:06:53.138Z,8.43
2023-05-12T03:09:38.731Z,7.82
2023-05-12T03:12:24.732Z,7.10
2023-05-12T03:15:10.411Z,8.45
2023-05-12T03:17:56.619Z,8.51
2023-05-12T03:20:41.869Z,8.62
2023-05-12T03:23:27.316Z,7.62
2023-05-12T03:26:13.856Z,8.73
2023-05-12T03:28:59.141Z,8.75
2023-05-12T03:31:44.975Z,8.70
2023-05-12T03:34:31.514Z,8.63
2023-05-12T03:37:17.686Z,8.72
2023-05-12T03:40:03.925Z,8.80
2023-05-12T03:42:49.611Z,7.72
2023-05-12T03:45:36.906Z,7.43
2023-05-12T03:48:22.343Z,8.85
2023-05-12T03:51:07.672Z,8.19
2023-05-12T03:53:53.092Z,8.87
2023-05-12T03:56:39.051Z,8.84
2023-05-12T03:59:24.524Z,7.58
2023-05-12T04:02:13.081Z,7.80
2023-05-12T04:04:58.843Z,7.98
2023-05-12T04:07:44.218Z,8.98
2023-05-12T04:10:29.616Z,9.06
2023-05-12T04:13:15.455Z,9.14
2023-05-12T04:16:00.949Z,9.12
2023-05-12T04:18:46.249Z,7.90
2023-05-12T04:21:31.485Z,8.58
2023-05-12T04:24:16.976Z,9.17
2023-05-12T04:27:02.291Z,9.53
2023-05-12T04:29:47.714Z,9.63
2023-05-12T04:32:34.098Z,8.45
2023-05-12T04:35:19.406Z,8.78
2023-05-12T04:38:05.038Z,9.89
2023-05-12T04:40:50.234Z,10.09
2023-05-12T04:46:24.933Z,9.23
2023-05-12T04:49:11.494Z,10.83
2023-05-12T04:51:57.463Z,11.23
2023-05-12T04:54:44.770Z,11.25
2023-05-12T04:57:34.243Z,12.01
2023-05-12T05:00:22.061Z,12.26
2023-05-12T05:03:07.572Z,11.68
2023-05-12T05:05:53.957Z,12.11
2023-05-12T05:08:39.327Z,13.23
2023-05-12T05:11:24.730Z,13.60
2023-05-12T05:14:10.038Z,14.23
2023-05-12T05:16:56.317Z,13.72
2023-05-12T05:19:54.931Z,14.89
2023-05-12T05:22:43.860Z,14.90
2023-05-12T05:25:30.280Z,15.10
2023-05-12T05:28:15.664Z,14.44
2023-05-12T05:31:01.061Z,14.83
2023-05-12T05:33:47.685Z,15.03
2023-05-12T05:36:33.972Z,14.97
2023-05-12T05:39:19.328Z,15.42
2023-05-12T05:42:05.338Z,14.75
2023-05-12T05:44:51.011Z,15.57
2023-05-12T05:47:37.706Z,15.84
2023-05-12T05:50:23.926Z,15.92
2023-05-12T05:53:09.879Z,14.92
2023-05-12T05:55:55.457Z,16.28
2023-05-12T05:58:41.623Z,15.32
2023-05-12T06:01:27.186Z,15.57
2023-05-12T06:04:13.060Z,16.66
2023-05-12T06:06:58.334Z,16.21
2023-05-12T06:09:43.892Z,16.04
2023-05-12T06:12:29.773Z,16.96
2023-05-12T06:15:15.277Z,17.05
2023-05-12T06:18:00.767Z,17.03
2023-05-12T06:20:46.078Z,16.92
2023-05-12T06:23:32.088Z,17.09
2023-05-12T06:26:17.556Z,15.92
2023-05-12T06:29:03.669Z,16.65
2023-05-12T06:31:49.129Z,16.73
2023-05-12T06:34:34.350Z,15.77
2023-05-12T06:37:19.804Z,16.44
2023-05-12T06:40:06.146Z,16.73
2023-05-12T06:42:51.781Z,15.61
2023-05-12T06:45:39.091Z,16.87
2023-05-12T06:48:27.536Z,16.89
2023-05-12T06:51:15.836Z,16.86
2023-05-12T06:54:02.203Z,16.70
2023-05-12T06:56:49.609Z,16.98
2023-05-12T06:59:35.401Z,16.11
2023-05-12T07:02:21.221Z,17.15
2023-05-12T07:05:07.364Z,16.03
2023-05-12T07:07:52.566Z,16.18
2023-05-12T07:10:38.183Z,16.01
2023-05-12T07:13:23.479Z,17.09
2023-05-12T07:16:09.036Z,16.81
2023-05-12T07:18:54.462Z,17.00
2023-05-12T07:21:40.528Z,17.30
2023-05-12T07:24:27.729Z,17.11
2023-05-12T07:27:13.068Z,17.26
2023-05-12T07:29:59.830Z,16.72
2023-05-12T07:32:46.224Z,17.34
2023-05-12T07:35:31.636Z,17.39
2023-05-12T07:38:18.072Z,17.40
2023-05-12T07:41:03.756Z,16.91
2023-05-12T07:43:49.347Z,17.44
2023-05-12T07:46:35.164Z,17.18
2023-05-12T07:49:21.798Z,16.30
2023-05-12T07:52:07.599Z,17.12
2023-05-12T07:54:53.227Z,17.37
2023-05-12T07:57:38.564Z,17.24
2023-05-12T08:00:23.887Z,17.42
2023-05-12T08:03:10.600Z,17.60
2023-05-12T08:05:56.486Z,17.64
2023-05-12T08:08:42.426Z,17.59
2023-05-12T08:11:28.339Z,16.43
2023-05-12T08:14:13.846Z,16.68
2023-05-12T08:16:59.220Z,16.26
2023-05-12T08:19:44.508Z,16.08
2023-05-12T08:22:30.582Z,16.82
2023-05-12T08:25:15.870Z,16.72
2023-05-12T08:28:01.275Z,16.80
2023-05-12T08:30:46.747Z,16.50
2023-05-12T08:33:35.264Z,16.59
2023-05-12T08:36:20.962Z,15.36
2023-05-12T08:39:08.199Z,16.44
2023-05-12T08:42:42.839Z,16.21
2023-05-12T08:45:29.341Z,16.42
2023-05-12T08:48:17.722Z,16.17
2023-05-12T08:51:06.903Z,16.53
2023-05-12T08:53:55.349Z,15.36
2023-05-12T08:59:29.627Z,15.26
2023-05-12T09:02:17.547Z,15.81
2023-05-12T09:05:03.256Z,15.94
2023-05-12T09:07:49.809Z,15.26
2023-05-12T09:10:36.016Z,15.17
2023-05-12T09:13:49.620Z,16.29
2023-05-12T09:16:41.770Z,15.43
2023-05-12T09:19:28.282Z,16.07
2023-05-12T09:22:15.100Z,16.22
2023-05-12T09:25:01.048Z,16.03
2023-05-12T09:27:47.891Z,16.29
2023-05-12T09:30:38.081Z,16.14
2023-05-12T09:33:25.491Z,16.25
2023-05-12T09:36:11.156Z,16.44
2023-05-12T09:39:08.164Z,15.42
2023-05-12T09:41:53.988Z,16.71
2023-05-12T09:44:40.820Z,16.73
2023-05-12T09:47:34.633Z,15.65
2023-05-12T09:50:20.036Z,16.91
2023-05-12T09:53:06.395Z,16.02
2023-05-12T09:55:51.961Z,17.08
2023-05-12T09:58:44.343Z,17.15
2023-05-12T10:01:30.501Z,17.17
2023-05-12T10:04:16.046Z,16.04
2023-05-12T10:07:01.487Z,16.08
2023-05-12T10:09:49.069Z,16.12
2023-05-12T10:12:36.183Z,16.19
2023-05-12T10:15:22.789Z,17.27
2023-05-12T10:18:09.127Z,17.19
2023-05-12T10:20:56.714Z,16.59
2023-05-12T10:23:44.407Z,16.86
2023-05-12T10:26:32.555Z,15.95
2023-05-12T10:29:18.487Z,16.09
2023-05-12T10:32:04.541Z,17.21
2023-05-12T10:34:50.980Z,17.32
2023-05-12T10:37:39.571Z,17.41
2023-05-12T10:40:25.645Z,17.46
2023-05-12T10:43:22.824Z,16.58
2023-05-12T10:46:21.181Z,17.66
2023-05-12T10:49:10.161Z,16.76
2023-05-12T10:51:59.994Z,16.94
2023-05-12T10:54:46.957Z,16.67
2023-05-12T10:57:33.572Z,16.78
2023-05-12T11:00:24.938Z,17.66
2023-05-12T11:03:17.009Z,17.74
2023-05-12T11:06:04.843Z,17.77
2023-05-12T11:08:50.900Z,16.69
2023-05-12T11:11:38.402Z,16.74
2023-05-12T11:14:24.351Z,16.78
2023-05-12T11:17:10.119Z,16.54
2023-05-12T11:19:55.795Z,17.76
2023-05-12T11:22:42.871Z,17.90
2023-05-12T11:25:28.758Z,17.86
2023-05-12T11:28:14.831Z,17.48
2023-05-12T11:31:01.038Z,17.33
2023-05-12T11:33:47.812Z,16.66
2023-05-12T11:36:38.337Z,16.99
2023-05-12T11:39:32.277Z,17.36
2023-05-12T11:42:20.266Z,17.63
2023-05-12T11:45:08.046Z,17.92
2023-05-12T11:48:05.642Z,18.04
2023-05-12T11:50:51.676Z,18.08
2023-05-12T11:53:40.654Z,18.11
2023-05-12T11:56:27.087Z,18.09
2023-05-12T11:59:13.957Z,17.56
2023-05-12T12:02:01.918Z,18.15
2023-05-12T12:04:47.380Z,16.94
2023-05-12T12:07:35.835Z,17.81
2023-05-12T12:10:21.966Z,17.59
2023-05-12T12:13:08.469Z,17.70
2023-05-12T12:15:53.976Z,17.81
2023-05-12T12:18:40.007Z,17.84
2023-05-12T12:21:25.766Z,16.76
2023-05-12T12:24:11.549Z,16.90
2023-05-12T12:26:57.114Z,16.92
2023-05-12T12:29:42.499Z,18.20
2023-05-12T12:32:28.135Z,18.24
2023-05-12T12:35:13.767Z,18.23
2023-05-12T12:38:00.567Z,18.21
2023-05-12T12:40:45.926Z,18.17
2023-05-12T12:43:31.336Z,17.06
2023-05-12T12:46:16.684Z,17.98
2023-05-12T12:49:01.904Z,18.08
2023-05-12T12:51:47.661Z,17.82
2023-05-12T12:54:33.729Z,17.91
2023-05-12T12:57:19.887Z,17.96
2023-05-12T13:00:06.145Z,16.75
2023-05-12T13:02:58.342Z,17.94
2023-05-12T13:05:44.369Z,17.02
2023-05-12T13:08:30.133Z,17.93
2023-05-12T13:11:15.468Z,17.75
2023-05-12T13:14:02.602Z,16.88
2023-05-12T13:16:48.354Z,17.71
2023-05-12T13:19:35.951Z,17.54
2023-05-12T13:22:23.401Z,17.99
2023-05-12T13:25:09.738Z,17.82
2023-05-12T13:27:55.047Z,18.02
2023-05-12T13:30:42.211Z,17.21
2023-05-12T13:33:27.937Z,17.31
2023-05-12T13:36:13.511Z,18.20
2023-05-12T13:38:58.993Z,17.39
2023-05-12T13:41:44.416Z,18.26
2023-05-12T13:44:30.065Z,18.19
2023-05-12T13:47:15.840Z,18.22
2023-05-12T13:50:01.417Z,18.21
2023-05-12T13:52:49.792Z,18.04
2023-05-12T13:55:40.663Z,18.21
2023-05-12T13:58:26.664Z,17.68
2023-05-12T14:01:12.536Z,18.28
2023-05-12T14:03:58.225Z,18.32
2023-05-12T14:06:43.989Z,17.29
2023-05-12T14:09:29.339Z,18.21
2023-05-12T14:12:16.056Z,17.86
2023-05-12T14:15:19.846Z,18.60
2023-05-12T14:18:08.836Z,17.46
2023-05-12T14:20:54.612Z,18.66
2023-05-12T14:23:40.147Z,18.50
2023-05-12T14:26:26.109Z,17.89
2023-05-12T14:29:11.566Z,18.46
2023-05-12T14:31:57.217Z,18.55
2023-05-12T14:34:42.820Z,18.51
2023-05-12T14:37:28.279Z,17.59
2023-05-12T14:40:14.242Z,17.44
2023-05-12T14:43:00.147Z,17.27
2023-05-12T14:45:54.316Z,17.32
2023-05-12T14:48:39.825Z,17.84
2023-05-12T14:51:25.283Z,17.98
2023-05-12T14:54:24.345Z,17.81
2023-05-12T14:57:10.805Z,17.17
2023-05-12T14:59:58.693Z,18.17
2023-05-12T15:02:45.207Z,18.13
2023-05-12T15:05:52.829Z,18.02
2023-05-12T15:08:36.065Z,17.04
2023-05-12T15:11:21.997Z,18.08
2023-05-12T15:14:07.412Z,17.17
2023-05-12T15:16:53.017Z,17.49
2023-05-12T15:19:38.729Z,17.14
2023-05-12T15:22:24.102Z,17.93
2023-05-12T15:25:10.035Z,17.76
2023-05-12T15:27:55.798Z,17.97
2023-05-12T15:30:41.378Z,17.03
2023-05-12T15:33:26.972Z,17.51
2023-05-12T15:36:13.603Z,17.46
2023-05-12T15:38:59.723Z,17.06
2023-05-12T15:41:45.236Z,17.87
2023-05-12T15:44:31.651Z,17.95
2023-05-12T15:47:17.410Z,17.07
2023-05-12T15:50:03.959Z,17.85
2023-05-12T15:52:50.093Z,17.12
2023-05-12T15:55:35.871Z,16.97
2023-05-12T15:58:21.382Z,17.86
2023-05-12T16:01:07.290Z,17.73
2023-05-12T16:03:53.979Z,17.02
2023-05-12T16:06:39.644Z,17.77
2023-05-12T16:09:25.107Z,16.64
2023-05-12T16:12:11.755Z,16.21
2023-05-12T16:14:57.346Z,17.65
2023-05-12T16:17:46.994Z,17.62
2023-05-12T16:20:34.567Z,17.04
2023-05-12T16:23:20.451Z,17.39
2023-05-12T16:26:06.286Z,16.48
2023-05-12T16:28:52.211Z,17.22
2023-05-12T16:31:37.908Z,16.93
2023-05-12T16:34:25.701Z,17.42
2023-05-12T16:37:11.272Z,17.38
2023-05-12T16:39:56.657Z,16.11
2023-05-12T16:42:42.797Z,17.28
2023-05-12T16:45:28.623Z,16.37
2023-05-12T16:48:14.152Z,17.18
2023-05-12T16:51:06.998Z,16.95
2023-05-12T16:53:52.550Z,17.12
2023-05-12T16:56:38.940Z,16.05
2023-05-12T16:59:25.010Z,17.10
2023-05-12T17:02:11.157Z,17.04
2023-05-12T17:04:56.423Z,15.96
2023-05-12T17:07:42.276Z,16.62
2023-05-12T17:10:27.628Z,16.87
2023-05-12T17:13:13.169Z,16.84
2023-05-12T17:15:58.664Z,16.82
2023-05-12T17:21:33.709Z,16.67
2023-05-12T17:24:19.200Z,16.77
2023-05-12T17:27:05.365Z,15.98
2023-05-12T17:29:50.663Z,16.79
2023-05-12T17:32:36.720Z,15.55
2023-05-12T17:35:22.830Z,16.77
2023-05-12T17:38:09.262Z,16.79
2023-05-12T17:40:55.360Z,16.73
2023-05-12T17:43:41.437Z,16.75
2023-05-12T17:46:26.841Z,15.95
2023-05-12T17:49:12.213Z,16.73
2023-05-12T17:51:57.539Z,16.67
2023-05-12T17:54:43.206Z,15.44
2023-05-12T17:57:28.892Z,15.28
2023-05-12T18:00:15.841Z,15.19
2023-05-12T18:03:03.059Z,16.27
2023-05-12T18:05:50.848Z,16.11
2023-05-12T18:08:36.538Z,14.91
2023-05-12T18:11:22.627Z,13.28
2023-05-12T18:14:09.867Z,15.90
2023-05-12T18:16:57.429Z,15.78
2023-05-12T18:19:44.522Z,15.63
2023-05-12T18:22:30.082Z,15.61
2023-05-12T18:25:15.829Z,15.57
2023-05-12T18:28:01.627Z,14.49
2023-05-12T18:30:47.416Z,14.25
2023-05-12T18:33:32.697Z,15.09
2023-05-12T18:36:18.698Z,15.32
2023-05-12T18:39:04.831Z,15.00
2023-05-12T18:41:50.885Z,15.12
2023-05-12T18:44:41.249Z,15.05
2023-05-12T18:47:27.704Z,14.98
2023-05-12T18:50:13.133Z,14.89
2023-05-12T18:53:01.037Z,14.45
2023-05-12T18:55:48.234Z,14.79
2023-05-12T18:58:33.698Z,14.14
2023-05-12T19:01:19.462Z,14.56
2023-05-12T19:04:05.090Z,13.74
2023-05-12T19:06:50.570Z,14.28
2023-05-12T19:09:37.052Z,14.43
2023-05-12T19:12:22.525Z,14.28
2023-05-12T19:15:10.270Z,13.94
2023-05-12T19:17:57.926Z,13.05
2023-05-12T19:20:44.560Z,13.34
2023-05-12T19:23:30.786Z,12.92
2023-05-12T19:26:16.803Z,13.37
2023-05-12T19:29:02.269Z,13.40
2023-05-12T19:31:47.920Z,13.56
2023-05-12T19:34:33.801Z,12.26
2023-05-12T19:37:20.065Z,13.34
2023-05-12T19:40:07.167Z,13.13
2023-05-12T19:42:53.106Z,11.95
2023-05-12T19:45:39.510Z,13.13
2023-05-12T19:48:25.353Z,13.03
2023-05-12T19:51:11.891Z,12.66
2023-05-12T19:53:58.183Z,12.95
2023-05-12T19:56:43.581Z,12.92
2023-05-12T19:59:28.857Z,12.85
2023-05-12T20:02:16.686Z,12.03
2023-05-12T20:05:02.889Z,11.61
2023-05-12T20:07:48.704Z,11.91
2023-05-12T20:10:34.500Z,12.48
2023-05-12T20:13:19.848Z,12.68
2023-05-12T20:16:05.881Z,12.59
2023-05-12T20:18:52.112Z,12.54
2023-05-12T20:21:38.103Z,12.49
2023-05-12T20:24:23.640Z,12.41
2023-05-12T20:27:08.993Z,11.02
2023-05-12T20:29:54.251Z,12.12
2023-05-12T20:32:39.955Z,11.11
2023-05-12T20:35:25.634Z,11.47
2023-05-12T20:38:11.376Z,11.66
2023-05-12T20:40:56.600Z,10.38
2023-05-12T20:43:41.968Z,11.14
2023-05-12T20:46:28.307Z,9.26
2023-05-12T20:49:14.625Z,11.22
2023-05-12T20:52:00.236Z,9.85
2023-05-12T20:54:45.746Z,10.78
2023-05-12T20:57:31.235Z,11.03
2023-05-12T21:00:17.268Z,10.98
2023-05-12T21:03:05.646Z,10.56
2023-05-12T21:05:51.862Z,10.82
2023-05-12T21:08:37.038Z,10.59
2023-05-12T21:11:22.371Z,10.64
2023-05-12T21:14:07.783Z,10.83
2023-05-12T21:16:53.119Z,10.81
2023-05-12T21:19:39.772Z,10.69
2023-05-12T21:22:25.454Z,10.92
2023-05-12T21:25:10.764Z,9.69
2023-05-12T21:27:56.545Z,10.85
2023-05-12T21:30:42.173Z,9.58
2023-05-12T21:33:27.908Z,9.54
2023-05-12T21:36:13.651Z,10.76
2023-05-12T21:38:58.947Z,10.61
2023-05-12T21:41:44.433Z,10.27
2023-05-12T21:44:29.997Z,9.20
2023-05-12T21:47:15.455Z,9.14
2023-05-12T21:50:01.396Z,10.57
2023-05-12T21:52:46.752Z,10.26
2023-05-12T21:55:32.638Z,10.47
2023-05-12T21:58:18.437Z,9.35
2023-05-12T22:01:03.664Z,10.31
2023-05-12T22:03:49.838Z,9.71
2023-05-12T22:06:35.469Z,8.91
2023-05-12T22:09:21.901Z,10.22
2023-05-12T22:12:08.739Z,10.19
2023-05-12T22:14:54.184Z,8.83
2023-05-12T22:17:40.045Z,8.74
2023-05-12T22:20:25.787Z,8.58
2023-05-12T22:23:11.440Z,9.07
2023-05-12T22:25:57.129Z,8.97
2023-05-12T22:28:42.670Z,9.49
2023-05-12T22:31:28.485Z,9.92
2023-05-12T22:34:13.810Z,9.78
2023-05-12T22:36:59.180Z,9.17
2023-05-12T22:39:44.594Z,9.42
2023-05-12T22:42:29.848Z,8.34
2023-05-12T22:45:15.693Z,9.45
2023-05-12T22:48:01.071Z,9.43
2023-05-12T22:50:46.472Z,9.45
2023-05-12T22:53:31.938Z,8.37
2023-05-12T22:56:18.062Z,7.90
2023-05-12T22:59:03.480Z,9.47
2023-05-12T23:01:48.835Z,8.16
2023-05-12T23:04:34.188Z,8.17
2023-05-12T23:07:19.558Z,9.42
2023-05-12T23:10:05.519Z,8.12
2023-05-12T23:12:50.951Z,8.55
2023-05-12T23:15:36.234Z,6.86
2023-05-12T23:18:21.749Z,8.46
2023-05-12T23:21:07.280Z,9.12
2023-05-12T23:23:52.692Z,8.91
2023-05-12T23:26:38.475Z,7.88
2023-05-12T23:29:23.912Z,8.93
2023-05-12T23:32:09.338Z,8.88
2023-05-12T23:34:54.663Z,8.37
2023-05-12T23:37:40.236Z,7.69
2023-05-12T23:40:25.766Z,8.96
2023-05-12T23:43:10.939Z,8.85
2023-05-12T23:45:57.023Z,8.66
2023-05-12T23:48:42.451Z,8.61
2023-05-12T23:51:28.765Z,8.93
2023-05-12T23:54:14.501Z,8.66
2023-05-12T23:56:59.925Z,8.86
2023-05-12T23:59:45.516Z,7.77
